createdAt,value
2022-10-02T00:00:43.169Z,100525.08
2022-10-02T00:02:01.921Z,100516.81
2022-10-02T00:03:20.834Z,100523.41
2022-10-02T00:04:35.784Z,100528.93
2022-10-02T00:05:45.036Z,100514.56
2022-10-02T00:06:50.705Z,100520.33
2022-10-02T00:08:09.062Z,100510.42
2022-10-02T00:09:15.490Z,100515.10
2022-10-02T00:10:24.923Z,100518.70
2022-10-02T00:11:40.227Z,100515.10
2022-10-02T00:12:45.336Z,100516.19
2022-10-02T00:13:57.864Z,100507.92
2022-10-02T00:15:05.102Z,100506.25
2022-10-02T00:16:29.710Z,100500.73
2022-10-02T00:17:36.171Z,100504.33
2022-10-02T00:18:39.928Z,100502.41
2022-10-02T00:19:42.858Z,100495.22
2022-10-02T00:20:49.319Z,100499.06
2022-10-02T00:22:30.714Z,100504.58
2022-10-02T00:23:43.197Z,100495.48
2022-10-02T00:24:58.780Z,100495.77
2022-10-02T00:26:17.266Z,100495.19
2022-10-02T00:27:27.097Z,100496.27
2022-10-02T00:28:33.517Z,100490.75
2022-10-02T00:29:52.416Z,100490.75
2022-10-02T00:31:01.855Z,100502.88
2022-10-02T00:32:11.082Z,100490.20
2022-10-02T00:33:26.157Z,100490.46
2022-10-02T00:34:41.759Z,100497.89
2022-10-02T00:36:03.528Z,100484.11
2022-10-02T00:37:15.914Z,100487.95
2022-10-02T00:38:46.358Z,100485.45
2022-10-02T00:40:07.755Z,100492.89
2022-10-02T00:41:38.210Z,100493.17
2022-10-02T00:42:53.138Z,100491.50
2022-10-02T00:44:13.899Z,100488.16
2022-10-02T00:45:24.235Z,100480.18
2022-10-02T00:46:34.054Z,100482.10
2022-10-02T00:48:05.145Z,100480.69
2022-10-02T00:49:35.636Z,100479.85
2022-10-02T00:50:58.705Z,100476.55
2022-10-02T00:52:21.591Z,100478.47
2022-10-02T00:53:39.699Z,100481.22
2022-10-02T00:55:09.964Z,100479.55
2022-10-02T00:56:31.557Z,100477.63
2022-10-02T00:57:43.714Z,100475.97
2022-10-02T00:59:06.618Z,100472.38
2022-10-02T01:00:15.475Z,100471.54
2022-10-02T01:01:24.720Z,100463.53
2022-10-02T01:02:57.255Z,100463.53
2022-10-02T01:04:02.609Z,100466.28
2022-10-02T01:05:08.596Z,100474.55
2022-10-02T01:06:12.369Z,100465.73
2022-10-02T01:07:15.189Z,100464.36
2022-10-02T01:08:18.858Z,100465.20
2022-10-02T01:09:23.174Z,100461.35
2022-10-02T01:10:26.694Z,100459.43
2022-10-02T01:11:30.421Z,100460.27
2022-10-02T01:12:33.335Z,100459.18
2022-10-02T01:13:36.155Z,100454.50
2022-10-02T01:14:40.169Z,100458.06
2022-10-02T01:15:49.726Z,100463.57
2022-10-02T01:16:52.779Z,100453.38
2022-10-02T01:17:56.439Z,100455.30
2022-10-02T01:18:59.376Z,100469.92
2022-10-02T01:20:05.320Z,100454.50
2022-10-02T01:21:20.951Z,100457.80
2022-10-02T01:22:36.220Z,100458.64
2022-10-02T01:24:08.068Z,100453.13
2022-10-02T01:25:11.099Z,100451.46
2022-10-02T01:26:14.316Z,100453.67
2022-10-02T01:27:17.650Z,100448.41
2022-10-02T01:28:21.895Z,100451.16
2022-10-02T01:29:24.851Z,100448.41
2022-10-02T01:30:30.115Z,100446.48
2022-10-02T01:31:35.601Z,100452.84
2022-10-02T01:32:44.850Z,100447.33
2022-10-02T01:33:49.285Z,100445.40
2022-10-02T01:34:53.735Z,100440.98
2022-10-02T01:35:56.731Z,100440.98
2022-10-02T01:36:59.863Z,100434.38
2022-10-02T01:38:12.059Z,100438.77
2022-10-02T01:39:15.019Z,100441.53
2022-10-02T01:40:33.216Z,100429.70
2022-10-02T01:41:39.624Z,100428.87
2022-10-02T01:42:42.542Z,100421.69
2022-10-02T01:43:57.795Z,100428.28
2022-10-02T01:45:01.133Z,100430.21
2022-10-02T01:46:13.566Z,100437.64
2022-10-02T01:47:20.001Z,100423.86
2022-10-02T01:48:29.200Z,100424.95
2022-10-02T01:49:54.911Z,100427.45
2022-10-02T01:51:17.938Z,100425.53
2022-10-02T01:52:39.521Z,100422.20
2022-10-02T01:53:52.095Z,100424.12
2022-10-02T01:55:07.487Z,100421.64
2022-10-02T01:56:29.914Z,100415.55
2022-10-02T01:57:45.368Z,100417.48
2022-10-02T01:58:51.679Z,100427.66
2022-10-02T02:00:10.121Z,100417.73
2022-10-02T02:01:28.513Z,100419.40
2022-10-02T02:02:41.094Z,100419.40
2022-10-02T02:04:02.428Z,100432.34
2022-10-02T02:05:11.931Z,100431.50
2022-10-02T02:06:18.666Z,100428.20
2022-10-02T02:07:42.608Z,100432.05
2022-10-02T02:10:15.397Z,100421.64
2022-10-02T02:11:20.551Z,100428.16
2022-10-02T02:12:29.871Z,100433.08
2022-10-02T02:13:38.986Z,100431.41
2022-10-02T02:14:47.780Z,100430.58
2022-10-02T02:16:09.412Z,100436.92
2022-10-02T02:17:15.896Z,100436.09
2022-10-02T02:18:30.876Z,100437.77
2022-10-02T02:19:40.235Z,100435.00
2022-10-02T02:20:46.657Z,100432.00
2022-10-02T02:22:01.698Z,100429.24
2022-10-02T02:23:08.088Z,100428.41
2022-10-02T02:24:26.512Z,100426.23
2022-10-02T02:25:33.069Z,100423.48
2022-10-02T02:26:37.426Z,100428.70
2022-10-02T02:27:44.040Z,100424.03
2022-10-02T02:28:50.661Z,100429.54
2022-10-02T02:29:57.093Z,100424.61
2022-10-02T02:31:02.709Z,100426.28
2022-10-02T02:32:09.403Z,100412.22
2022-10-02T02:33:16.012Z,100417.73
2022-10-02T02:34:37.243Z,100419.40
2022-10-02T02:35:46.438Z,100417.48
2022-10-02T02:36:52.960Z,100417.22
2022-10-02T02:37:59.319Z,100408.96
2022-10-02T02:39:05.666Z,100413.38
2022-10-02T02:40:22.986Z,100405.95
2022-10-02T02:41:29.122Z,100399.06
2022-10-02T02:42:35.367Z,100403.74
2022-10-02T02:43:44.784Z,100395.47
2022-10-02T02:44:51.172Z,100401.82
2022-10-02T02:46:00.360Z,100393.55
2022-10-02T02:47:07.026Z,100394.39
2022-10-02T02:48:35.887Z,100388.88
2022-10-02T02:51:19.968Z,100391.45
2022-10-02T02:53:55.227Z,100385.11
2022-10-02T02:55:04.645Z,100388.88
2022-10-02T02:56:11.470Z,100379.78
2022-10-02T02:57:16.919Z,100380.61
2022-10-02T02:58:35.198Z,100379.78
2022-10-02T02:59:41.154Z,100373.18
2022-10-02T03:00:44.040Z,100370.42
2022-10-02T03:01:47.108Z,100373.18
2022-10-02T03:02:52.099Z,100366.58
2022-10-02T03:03:55.055Z,100363.82
2022-10-02T03:04:58.129Z,100368.25
2022-10-02T03:06:19.362Z,100361.61
2022-10-02T03:07:22.293Z,100359.69
2022-10-02T03:08:28.615Z,100361.36
2022-10-02T03:09:33.060Z,100356.94
2022-10-02T03:10:57.704Z,100364.38
2022-10-02T03:12:04.386Z,100356.94
2022-10-02T03:13:34.757Z,100351.42
2022-10-02T03:15:11.431Z,100349.50
2022-10-02T03:16:34.208Z,100352.26
2022-10-02T03:18:01.699Z,100339.02
2022-10-02T03:19:29.097Z,100342.61
2022-10-02T03:20:44.707Z,100342.03
2022-10-02T03:22:24.152Z,100344.79
2022-10-02T03:23:48.489Z,100331.27
2022-10-02T03:25:00.627Z,100323.29
2022-10-02T03:26:09.781Z,100326.05
2022-10-02T03:27:16.176Z,100324.38
2022-10-02T03:28:53.824Z,100324.38
2022-10-02T03:29:39.793Z,100324.38
2022-10-02T03:30:44.859Z,100321.63
2022-10-02T03:31:49.419Z,100320.79
2022-10-02T03:32:53.467Z,100327.97
2022-10-02T03:33:59.034Z,100321.63
2022-10-02T03:35:04.546Z,100325.47
2022-10-02T03:36:09.361Z,100320.79
2022-10-02T03:37:12.219Z,100315.28
2022-10-02T03:38:16.105Z,100320.53
2022-10-02T03:39:26.470Z,100318.61
2022-10-02T03:40:25.541Z,100320.25
2022-10-02T03:41:28.377Z,100321.91
2022-10-02T03:42:33.930Z,100312.81
2022-10-02T03:43:38.035Z,100311.73
2022-10-02T03:44:41.265Z,100307.05
2022-10-02T03:45:51.294Z,100301.54
2022-10-02T03:46:49.032Z,100302.63
2022-10-02T03:47:51.972Z,100296.03
2022-10-02T03:48:55.921Z,100294.36
2022-10-02T03:49:58.926Z,100291.61
2022-10-02T03:51:01.749Z,100286.35
2022-10-02T03:52:04.647Z,100282.51
2022-10-02T03:53:16.225Z,100284.17
2022-10-02T03:54:21.500Z,100279.50
2022-10-02T03:55:34.187Z,100275.65
2022-10-02T03:56:41.001Z,100274.56
2022-10-02T03:57:46.042Z,100274.56
2022-10-02T03:58:52.621Z,100271.80
2022-10-02T04:00:08.752Z,100263.54
2022-10-02T04:01:21.135Z,100266.00
2022-10-02T04:02:33.590Z,100266.84
2022-10-02T04:03:40.297Z,100271.26
2022-10-02T04:04:49.843Z,100268.50
2022-10-02T04:06:05.104Z,100266.58
2022-10-02T04:07:11.493Z,100263.56
2022-10-02T04:08:17.819Z,100265.23
2022-10-02T04:09:26.975Z,100264.39
2022-10-02T04:10:56.243Z,100266.03
2022-10-02T04:12:03.445Z,100255.84
2022-10-02T04:13:15.855Z,100261.35
2022-10-02T04:14:22.226Z,100266.86
2022-10-02T04:15:46.889Z,100259.43
2022-10-02T04:17:05.779Z,100260.27
2022-10-02T04:18:12.195Z,100260.00
2022-10-02T04:19:27.282Z,100250.91
2022-10-02T04:20:45.886Z,100260.84
2022-10-02T04:22:01.093Z,100256.16
2022-10-02T04:23:22.366Z,100260.58
2022-10-02T04:24:49.778Z,100268.02
2022-10-02T04:25:56.339Z,100271.60
2022-10-02T04:27:11.851Z,100268.02
2022-10-02T04:28:18.393Z,100268.84
2022-10-02T04:29:24.925Z,100263.33
2022-10-02T04:30:29.558Z,100268.55
2022-10-02T04:31:32.473Z,100270.22
2022-10-02T04:32:36.380Z,100272.72
2022-10-02T04:33:39.811Z,100264.19
2022-10-02T04:34:43.042Z,100262.23
2022-10-02T04:36:22.639Z,100264.73
2022-10-02T04:37:37.783Z,100267.23
2022-10-02T04:38:47.055Z,100271.36
2022-10-02T04:39:56.127Z,100276.08
2022-10-02T04:41:14.601Z,100273.03
2022-10-02T04:42:48.316Z,100270.27
2022-10-02T04:44:13.033Z,100269.17
2022-10-02T04:45:34.360Z,100266.16
2022-10-02T04:46:43.736Z,100274.44
2022-10-02T04:48:16.769Z,100276.93
2022-10-02T04:49:28.983Z,100275.80
2022-10-02T04:50:50.510Z,100282.16
2022-10-02T04:52:12.172Z,100277.47
2022-10-02T04:53:50.486Z,100278.30
2022-10-02T04:55:13.274Z,100270.87
2022-10-02T04:56:20.399Z,100273.36
2022-10-02T04:57:52.384Z,100273.07
2022-10-02T04:59:16.728Z,100273.94
2022-10-02T05:00:21.470Z,100269.00
2022-10-02T05:01:27.913Z,100273.42
2022-10-02T05:02:49.597Z,100268.45
2022-10-02T05:04:04.304Z,100270.94
2022-10-02T05:05:22.561Z,100272.34
2022-10-02T05:06:43.931Z,100272.05
2022-10-02T05:08:02.525Z,100273.46
2022-10-02T05:09:31.451Z,100275.13
2022-10-02T05:11:11.157Z,100276.50
2022-10-02T05:12:23.409Z,100271.55
2022-10-02T05:13:35.838Z,100263.84
2022-10-02T05:14:47.980Z,100264.39
2022-10-02T05:15:54.353Z,100266.05
2022-10-02T05:17:00.796Z,100261.11
2022-10-02T05:18:17.699Z,100253.38
2022-10-02T05:19:37.767Z,100260.29
2022-10-02T05:20:50.126Z,100266.34
2022-10-02T05:22:13.307Z,100254.78
2022-10-02T05:23:28.429Z,100255.36
2022-10-02T05:24:55.795Z,100262.24
2022-10-02T05:26:30.998Z,100263.91
2022-10-02T05:27:46.819Z,100263.64
2022-10-02T05:29:20.707Z,100256.20
2022-10-02T05:30:24.543Z,100262.52
2022-10-02T05:31:43.000Z,100259.77
2022-10-02T05:33:13.933Z,100250.68
2022-10-02T05:34:30.714Z,100261.72
2022-10-02T05:35:51.932Z,100252.31
2022-10-02T05:37:16.195Z,100253.98
2022-10-02T05:38:28.304Z,100250.95
2022-10-02T05:39:34.122Z,100247.94
2022-10-02T05:40:55.342Z,100246.80
2022-10-02T05:43:34.102Z,100237.75
2022-10-02T05:44:43.395Z,100226.41
2022-10-02T05:45:56.130Z,100230.56
2022-10-02T05:47:12.369Z,100222.55
2022-10-02T05:48:30.394Z,100220.36
2022-10-02T05:49:43.463Z,100221.73
2022-10-02T05:50:49.988Z,100222.30
2022-10-02T05:51:59.237Z,100226.45
2022-10-02T05:53:17.554Z,100227.81
2022-10-02T05:54:27.058Z,100223.96
2022-10-02T05:55:39.462Z,100233.61
2022-10-02T05:56:45.863Z,100233.34
2022-10-02T05:57:52.267Z,100242.19
2022-10-02T05:59:04.988Z,100244.38
2022-10-02T06:00:14.621Z,100247.71
2022-10-02T06:01:24.223Z,100240.80
2022-10-02T06:02:38.837Z,100241.36
2022-10-02T06:03:44.883Z,100236.41
2022-10-02T06:04:54.403Z,100235.87
2022-10-02T06:06:06.679Z,100226.48
2022-10-02T06:07:13.238Z,100236.17
2022-10-02T06:08:19.934Z,100229.25
2022-10-02T06:09:32.059Z,100234.23
2022-10-02T06:10:50.335Z,100211.58
2022-10-02T06:11:59.746Z,100215.70
2022-10-02T06:13:24.317Z,100217.09
2022-10-02T06:14:44.503Z,100211.00
2022-10-02T06:15:51.047Z,100208.80
2022-10-02T06:17:00.476Z,100202.17
2022-10-02T06:18:07.058Z,100205.50
2022-10-02T06:19:16.416Z,100197.74
2022-10-02T06:20:31.885Z,100205.49
2022-10-02T06:21:38.435Z,100202.16
2022-10-02T06:22:44.839Z,100193.33
2022-10-02T06:23:51.349Z,100188.33
2022-10-02T06:25:00.430Z,100189.72
2022-10-02T06:26:06.998Z,100189.15
2022-10-02T06:27:19.313Z,100193.00
2022-10-02T06:28:37.553Z,100187.77
2022-10-02T06:29:43.945Z,100182.77
2022-10-02T06:31:07.193Z,100182.22
2022-10-02T06:32:19.747Z,100172.52
2022-10-02T06:33:29.640Z,100172.50
2022-10-02T06:34:32.656Z,100173.06
2022-10-02T06:35:42.454Z,100171.69
2022-10-02T06:37:04.010Z,100165.58
2022-10-02T06:38:35.895Z,100165.83
2022-10-02T06:39:48.152Z,100166.39
2022-10-02T06:41:05.677Z,100161.66
2022-10-02T06:42:44.053Z,100156.38
2022-10-02T06:44:07.547Z,100167.17
2022-10-02T06:45:34.285Z,100158.58
2022-10-02T06:47:06.456Z,100159.37
2022-10-02T06:48:27.543Z,100163.78
2022-10-02T06:49:37.106Z,100159.88
2022-10-02T06:50:49.545Z,100159.02
2022-10-02T06:51:59.063Z,100163.16
2022-10-02T06:53:14.428Z,100153.72
2022-10-02T06:54:36.035Z,100153.45
2022-10-02T06:55:42.506Z,100143.20
2022-10-02T06:57:00.599Z,100139.06
2022-10-02T06:58:22.598Z,100126.85
2022-10-02T06:59:41.008Z,100123.25
2022-10-02T07:00:47.877Z,100126.02
2022-10-02T07:01:57.588Z,100112.19
2022-10-02T07:03:15.274Z,100108.63
2022-10-02T07:04:25.087Z,100111.39
2022-10-02T07:05:52.820Z,100107.24
2022-10-02T07:07:08.747Z,100110.84
2022-10-02T07:08:36.463Z,100108.35
2022-10-02T07:10:04.196Z,100113.88
2022-10-02T07:11:27.728Z,100113.88
2022-10-02T07:13:06.915Z,100116.93
2022-10-02T07:14:31.569Z,100109.46
2022-10-02T07:15:55.966Z,100105.59
2022-10-02T07:17:32.908Z,100103.37
2022-10-02T07:19:09.874Z,100103.89
2022-10-02T07:20:19.701Z,100102.78
2022-10-02T07:21:35.057Z,100103.61
2022-10-02T07:22:44.933Z,100098.63
2022-10-02T07:24:07.270Z,100097.20
2022-10-02T07:25:29.020Z,100099.41
2022-10-02T07:26:44.110Z,100101.31
2022-10-02T07:27:56.415Z,100092.42
2022-10-02T07:29:05.701Z,100083.27
2022-10-02T07:30:15.215Z,100089.05
2022-10-02T07:31:38.902Z,100073.81
2022-10-02T07:32:48.605Z,100076.53
2022-10-02T07:34:16.284Z,100070.41
2022-10-02T07:35:43.861Z,100065.10
2022-10-02T07:37:05.572Z,100057.06
2022-10-02T07:38:23.262Z,100055.38
2022-10-02T07:39:35.752Z,100049.56
2022-10-02T07:41:06.209Z,100058.92
2022-10-02T07:42:15.830Z,100053.10
2022-10-02T07:43:22.365Z,100048.91
2022-10-02T07:44:28.743Z,100053.33
2022-10-02T07:45:35.338Z,100055.28
2022-10-02T07:46:42.032Z,100052.51
2022-10-02T07:48:14.217Z,100064.70
2022-10-02T07:49:38.792Z,100058.05
2022-10-02T07:50:48.159Z,100060.81
2022-10-02T07:52:26.440Z,100060.81
2022-10-02T07:53:42.492Z,100058.05
2022-10-02T07:55:00.853Z,100055.28
2022-10-02T07:56:06.251Z,100053.87
2022-10-02T07:57:18.904Z,100040.55
2022-10-02T07:58:31.160Z,100043.86
2022-10-02T07:59:36.359Z,100036.92
2022-10-02T08:00:55.129Z,100037.44
2022-10-02T08:01:59.360Z,100039.92
2022-10-02T08:03:14.690Z,100040.46
2022-10-02T08:04:21.126Z,100037.69
2022-10-02T08:05:42.684Z,100034.09
2022-10-02T08:06:47.712Z,100029.38
2022-10-02T08:07:54.063Z,100025.24
2022-10-02T08:09:00.470Z,100015.27
2022-10-02T08:10:07.109Z,100019.48
2022-10-02T08:11:29.685Z,100021.70
2022-10-02T08:12:42.120Z,100019.53
2022-10-02T08:13:55.391Z,100012.63
2022-10-02T08:14:59.456Z,100014.84
2022-10-02T08:16:06.279Z,100015.16
2022-10-02T08:17:40.540Z,100007.14
2022-10-02T08:18:47.460Z,100006.31
2022-10-02T08:19:51.762Z,100013.22
2022-10-02T08:20:55.331Z,100007.69
2022-10-02T08:22:16.688Z,100005.43
2022-10-02T08:23:33.304Z,99999.61
2022-10-02T08:24:42.904Z,100005.69
2022-10-02T08:26:07.334Z,99998.72
2022-10-02T08:27:16.846Z,99997.89
2022-10-02T08:28:35.318Z,99995.13
2022-10-02T08:29:41.634Z,99985.98
2022-10-02T08:30:44.866Z,99993.47
2022-10-02T08:31:50.984Z,99988.75
2022-10-02T08:32:54.436Z,99995.13
2022-10-02T08:33:57.819Z,99986.23
2022-10-02T08:35:00.888Z,99987.07
2022-10-02T08:36:10.200Z,99983.16
2022-10-02T08:37:31.562Z,99982.58
2022-10-02T08:38:48.652Z,99975.32
2022-10-02T08:40:18.013Z,99964.47
2022-10-02T08:41:24.474Z,99963.60
2022-10-02T08:42:50.364Z,99952.45
2022-10-02T08:44:36.033Z,99957.09
2022-10-02T08:46:07.905Z,99946.77
2022-10-02T08:47:23.339Z,99948.35
2022-10-02T08:49:01.488Z,99942.73
2022-10-02T08:50:29.555Z,99936.30
2022-10-02T08:51:41.920Z,99930.38
2022-10-02T08:53:16.821Z,99927.53
2022-10-02T08:54:29.168Z,99923.02
2022-10-02T08:55:43.486Z,99920.20
2022-10-02T08:56:57.563Z,99917.67
2022-10-02T08:58:18.964Z,99913.67
2022-10-02T08:59:41.601Z,99911.64
2022-10-02T09:00:57.397Z,99904.38
2022-10-02T09:02:25.241Z,99912.62
2022-10-02T09:03:37.441Z,99902.02
2022-10-02T09:04:43.876Z,99896.72
2022-10-02T09:06:05.492Z,99906.69
2022-10-02T09:07:12.001Z,99891.67
2022-10-02T09:08:56.598Z,99887.77
2022-10-02T09:10:37.990Z,99887.27
2022-10-02T09:11:50.365Z,99893.11
2022-10-02T09:14:36.798Z,99870.83
2022-10-02T09:16:06.082Z,99870.78
2022-10-02T09:17:32.416Z,99870.28
2022-10-02T09:18:51.210Z,99869.75
2022-10-02T09:20:06.841Z,99858.95
2022-10-02T09:21:19.769Z,99863.17
2022-10-02T09:22:44.849Z,99860.69
2022-10-02T09:24:18.359Z,99859.86
2022-10-02T09:25:30.655Z,99861.81
2022-10-02T09:26:52.187Z,99849.39
2022-10-02T09:28:00.182Z,99849.39
2022-10-02T09:29:19.634Z,99843.02
2022-10-02T09:30:41.007Z,99839.13
2022-10-02T09:32:08.987Z,99831.63
2022-10-02T09:33:44.234Z,99823.52
2022-10-02T09:35:06.264Z,99820.75
2022-10-02T09:36:23.825Z,99825.67
2022-10-02T09:37:47.012Z,99824.55
2022-10-02T09:39:13.010Z,99822.30
2022-10-02T09:40:32.417Z,99817.29
2022-10-02T09:41:58.733Z,99819.73
2022-10-02T09:43:17.371Z,99812.24
2022-10-02T09:44:44.253Z,99802.27
2022-10-02T09:45:56.434Z,99795.59
2022-10-02T09:47:28.749Z,99797.25
2022-10-02T09:49:00.713Z,99787.81
2022-10-02T09:50:28.392Z,99778.36
2022-10-02T09:51:39.578Z,99792.23
2022-10-02T09:53:01.248Z,99785.53
2022-10-02T09:54:30.251Z,99781.63
2022-10-02T09:55:53.231Z,99788.84
2022-10-02T09:57:16.644Z,99780.52
2022-10-02T09:58:31.989Z,99771.89
2022-10-02T09:59:50.311Z,99766.34
2022-10-02T10:01:19.405Z,99769.95
2022-10-02T10:02:28.915Z,99774.67
2022-10-02T10:03:41.063Z,99768.30
2022-10-02T10:05:05.575Z,99772.19
2022-10-02T10:06:25.196Z,99769.72
2022-10-02T10:07:31.940Z,99761.73
2022-10-02T10:08:56.519Z,99760.38
2022-10-02T10:11:57.824Z,99748.87
2022-10-02T10:13:21.283Z,99748.55
2022-10-02T10:14:36.471Z,99752.45
2022-10-02T10:16:06.049Z,99760.27
2022-10-02T10:17:30.708Z,99760.56
2022-10-02T10:19:02.518Z,99757.59
2022-10-02T10:20:22.256Z,99759.84
2022-10-02T10:22:00.614Z,99758.48
2022-10-02T10:23:17.322Z,99761.58
2022-10-02T10:24:32.385Z,99765.77
2022-10-02T10:25:38.786Z,99763.00
2022-10-02T10:27:07.982Z,99760.52
2022-10-02T10:28:28.251Z,99762.50
2022-10-02T10:29:50.235Z,99755.31
2022-10-02T10:31:00.440Z,99767.52
2022-10-02T10:32:32.524Z,99766.13
2022-10-02T10:33:48.028Z,99771.17
2022-10-02T10:35:06.552Z,99769.81
2022-10-02T10:36:46.737Z,99777.63
2022-10-02T10:38:13.789Z,99782.95
2022-10-02T10:39:42.963Z,99768.05
2022-10-02T10:40:52.117Z,99778.61
2022-10-02T10:42:04.873Z,99778.41
2022-10-02T10:43:32.302Z,99777.87
2022-10-02T10:44:54.138Z,99774.59
2022-10-02T10:46:10.186Z,99778.48
2022-10-02T10:47:33.036Z,99774.89
2022-10-02T10:49:00.057Z,99770.47
2022-10-02T10:50:23.385Z,99771.09
2022-10-02T10:51:52.447Z,99767.78
2022-10-02T10:53:26.046Z,99768.41
2022-10-02T10:54:51.814Z,99763.16
2022-10-02T10:56:16.441Z,99762.63
2022-10-02T10:57:26.066Z,99752.98
2022-10-02T10:58:38.555Z,99754.10
2022-10-02T11:00:15.504Z,99747.73
2022-10-02T11:01:21.631Z,99746.91
2022-10-02T11:02:35.340Z,99741.37
2022-10-02T11:03:57.850Z,99744.14
2022-10-02T11:05:26.616Z,99735.00
2022-10-02T11:06:51.586Z,99737.77
2022-10-02T11:08:14.470Z,99736.95
2022-10-02T11:09:43.765Z,99726.98
2022-10-02T11:11:07.438Z,99725.04
2022-10-02T11:12:27.797Z,99726.19
2022-10-02T11:13:37.325Z,99722.59
2022-10-02T11:15:04.564Z,99720.12
2022-10-02T11:16:26.442Z,99711.81
2022-10-02T11:17:51.117Z,99715.70
2022-10-02T11:19:26.446Z,99709.33
2022-10-02T11:20:33.066Z,99708.50
2022-10-02T11:21:56.526Z,99706.86
2022-10-02T11:23:08.936Z,99702.47
2022-10-02T11:24:50.235Z,99703.59
2022-10-02T11:26:13.010Z,99698.34
2022-10-02T11:27:52.923Z,99701.11
2022-10-02T11:29:14.486Z,99702.23
2022-10-02T11:30:26.823Z,99694.24
2022-10-02T11:31:36.177Z,99698.95
2022-10-02T11:33:03.848Z,99697.30
2022-10-02T11:34:19.905Z,99690.94
2022-10-02T11:35:44.453Z,99692.59
2022-10-02T11:37:12.726Z,99697.80
2022-10-02T11:38:22.836Z,99685.94
2022-10-02T11:39:42.160Z,99686.44
2022-10-02T11:41:01.006Z,99674.53
2022-10-02T11:42:23.755Z,99678.95
2022-10-02T11:43:46.132Z,99675.59
2022-10-02T11:45:24.703Z,99671.17
2022-10-02T11:46:40.162Z,99669.23
2022-10-02T11:48:07.934Z,99671.17
2022-10-02T11:49:26.515Z,99669.23
2022-10-02T11:50:49.604Z,99656.50
2022-10-02T11:52:03.861Z,99658.44
2022-10-02T11:53:25.542Z,99653.20
2022-10-02T11:54:32.647Z,99656.27
2022-10-02T11:55:56.834Z,99647.16
2022-10-02T11:57:06.852Z,99647.95
2022-10-02T11:58:32.022Z,99639.97
2022-10-02T11:59:44.390Z,99643.03
2022-10-02T12:01:08.772Z,99639.73
2022-10-02T12:02:45.365Z,99638.91
2022-10-02T12:04:14.534Z,99637.30
2022-10-02T12:05:51.371Z,99627.63
2022-10-02T12:07:23.579Z,99620.77
2022-10-02T12:08:51.109Z,99612.75
2022-10-02T12:10:19.022Z,99608.34
2022-10-02T12:11:42.094Z,99594.78
2022-10-02T12:13:00.680Z,99601.44
2022-10-02T12:14:23.891Z,99591.52
2022-10-02T12:15:33.699Z,99590.70
2022-10-02T12:16:43.043Z,99588.22
2022-10-02T12:18:07.675Z,99589.34
2022-10-02T12:19:32.527Z,99584.63
2022-10-02T12:21:15.777Z,99582.98
2022-10-02T12:22:40.538Z,99582.98
2022-10-02T12:24:20.743Z,99576.61
2022-10-02T12:25:54.520Z,99564.48
2022-10-02T12:27:10.364Z,99564.48
2022-10-02T12:28:33.554Z,99565.92
2022-10-02T12:29:55.259Z,99556.80
2022-10-02T12:31:09.495Z,99553.20
2022-10-02T12:32:25.683Z,99551.55
2022-10-02T12:33:32.377Z,99548.78
2022-10-02T12:34:41.872Z,99540.48
2022-10-02T12:36:12.146Z,99525.81
2022-10-02T12:37:24.227Z,99534.95
2022-10-02T12:38:47.665Z,99533.00
2022-10-02T12:40:09.735Z,99530.53
2022-10-02T12:41:39.640Z,99523.34
2022-10-02T12:42:49.506Z,99524.47
2022-10-02T12:43:58.912Z,99520.67
2022-10-02T12:45:25.336Z,99516.25
2022-10-02T12:46:38.056Z,99501.91
2022-10-02T12:48:10.246Z,99502.74
2022-10-02T12:49:28.958Z,99504.69
2022-10-02T12:50:55.131Z,99508.28
2022-10-02T12:52:19.695Z,99504.98
2022-10-02T12:53:45.532Z,99495.56
2022-10-02T12:55:12.963Z,99486.43
2022-10-02T12:56:31.813Z,99486.43
2022-10-02T12:57:56.310Z,99474.53
2022-10-02T12:59:22.485Z,99472.06
2022-10-02T13:00:44.261Z,99476.77
2022-10-02T13:01:53.647Z,99476.28
2022-10-02T13:03:15.174Z,99478.22
2022-10-02T13:04:30.870Z,99476.58
2022-10-02T13:05:50.654Z,99475.75
2022-10-02T13:06:57.090Z,99478.22
2022-10-02T13:08:30.985Z,99472.69
2022-10-02T13:10:00.256Z,99471.56
2022-10-02T13:11:29.351Z,99462.14
2022-10-02T13:12:41.741Z,99454.97
2022-10-02T13:13:57.008Z,99457.73
2022-10-02T13:15:32.469Z,99463.27
2022-10-02T13:16:47.984Z,99454.97
2022-10-02T13:17:56.540Z,99452.20
2022-10-02T13:19:12.285Z,99454.97
2022-10-02T13:20:35.655Z,99453.31
2022-10-02T13:22:06.814Z,99448.91
2022-10-02T13:23:25.120Z,99446.13
2022-10-02T13:24:48.033Z,99446.13
2022-10-02T13:26:03.929Z,99435.89
2022-10-02T13:27:32.981Z,99440.30
2022-10-02T13:29:13.196Z,99442.77
2022-10-02T13:30:20.893Z,99441.95
2022-10-02T13:32:01.375Z,99443.56
2022-10-02T13:33:10.851Z,99442.77
2022-10-02T13:34:19.949Z,99431.70
2022-10-02T13:35:26.596Z,99432.50
2022-10-02T13:36:34.601Z,99430.55
2022-10-02T13:37:44.477Z,99420.30
2022-10-02T13:38:59.582Z,99431.08
2022-10-02T13:40:18.302Z,99422.48
2022-10-02T13:41:41.486Z,99417.77
2022-10-02T13:43:03.739Z,99416.61
2022-10-02T13:44:36.298Z,99416.61
2022-10-02T13:46:16.470Z,99426.07
2022-10-02T13:47:30.545Z,99410.58
2022-10-02T13:48:55.016Z,99410.58
2022-10-02T13:50:19.546Z,99408.94
2022-10-02T13:51:26.063Z,99406.47
2022-10-02T13:52:41.160Z,99398.49
2022-10-02T13:54:02.850Z,99403.20
2022-10-02T13:55:28.105Z,99407.09
2022-10-02T13:56:43.539Z,99400.44
2022-10-02T13:58:20.429Z,99392.43
2022-10-02T13:59:41.992Z,99388.55
2022-10-02T14:00:54.629Z,99384.13
2022-10-02T14:02:04.214Z,99380.84
2022-10-02T14:03:13.493Z,99381.95
2022-10-02T14:04:32.467Z,99384.73
2022-10-02T14:05:45.166Z,99379.19
2022-10-02T14:06:55.233Z,99378.70
2022-10-02T14:08:17.249Z,99381.47
2022-10-02T14:11:08.179Z,99364.12
2022-10-02T14:12:29.873Z,99361.57
2022-10-02T14:15:19.100Z,99359.75
2022-10-02T14:16:29.976Z,99362.69
2022-10-02T14:17:39.405Z,99353.27
2022-10-02T14:19:23.711Z,99365.98
2022-10-02T14:20:39.346Z,99366.80
2022-10-02T14:22:07.212Z,99364.34
2022-10-02T14:23:22.832Z,99363.84
2022-10-02T14:24:59.200Z,99351.13
2022-10-02T14:26:11.547Z,99360.55
2022-10-02T14:28:40.770Z,99349.91
2022-10-02T14:30:08.501Z,99354.30
2022-10-02T14:31:29.965Z,99351.53
2022-10-02T14:32:52.940Z,99349.88
2022-10-02T14:34:05.144Z,99348.23
2022-10-02T14:35:30.597Z,99342.20
2022-10-02T14:37:05.621Z,99335.85
2022-10-02T14:38:24.003Z,99344.45
2022-10-02T14:39:39.821Z,99341.16
2022-10-02T14:40:58.154Z,99344.25
2022-10-02T14:42:07.822Z,99340.96
2022-10-02T14:43:44.018Z,99345.67
2022-10-02T14:44:59.922Z,99342.38
2022-10-02T14:46:21.572Z,99350.18
2022-10-02T14:47:43.169Z,99350.47
2022-10-02T14:49:23.374Z,99344.13
2022-10-02T14:50:44.884Z,99345.23
2022-10-02T14:52:09.363Z,99329.80
2022-10-02T14:53:49.488Z,99330.09
2022-10-02T14:55:06.649Z,99321.80
2022-10-02T14:56:41.718Z,99315.73
2022-10-02T14:57:54.067Z,99321.59